Huvudsida
METAR-TAF:

METAR-TAF

Flygplatser :

Chengdu Shuangliu International Airport

Chengdu, Kina

latitud: 30-40N, longitud: 104-01E, höjd: 508 m

Aktuellt väderrapport

Denna rapport gjordes för 1 timme och 3 minuter sedan, klockan 04:00 UTC
Vind 2 kt varierande vindriktning
Temperatur 34°C
Fuktighet 63%
Tryck 1004 hPa
Sikt 10 km eller mer
Få moln på en höjd av 3000 ft, Högtornande cumulus.
Få moln på en höjd av 3000 ft

METAR: ZUUU 220400Z VRB01MPS 9999 FEW030TCU FEW030 34/26 Q1004 NOSIG

Tid: 13:03 (05:03 UTC)

Väderprognos

Denna rapport gjordes för 8 timmar och 57 minuter sedan, klockan 20:06 UTC
Prognos gäller från 22 kl. 00 UTC till 22 kl. 24 UTC
Vind 6 kt från syd/sydväst
Sikt: 5000 m
Spridda moln på en höjd av 5000 ft
fuktdis
Temporärt
från 22 kl. 10 UTC till 22 kl. 13 UTC
Få moln på en höjd av 3000 ft, Cumulonimbus.
Spridda moln på en höjd av 3000 ft
åska, lätt regn

TAF: ZUUU 212006Z 2200/2224 20003MPS 5000 BR SCT050 TX35/2207Z TN27/2223Z TEMPO 2210/2213 -TSRA FEW030CB SCT030

Aktuella väderrapporter och prognoser från 4000 flygplatser (METAR- och TAF-rapporter).

De tillgängliga stationerna syns som gula och röda prickar på kartan.

För musen över prickarna för att se namnen på stationerna.

Klicka sedan för att få väderrapporter och prognoser.

För att ändra kartan: Klicka på de gröna knapparna med ett svart kors på för att zooma in; den gröna knappen med ett streck på för att zooma ut; eller på de gröna pilarna för angränsande kartor.


METAR-TAF: